Time;durP1;ratioP1;P1;durP2;ratioP2;P2;SDS_P1;SDS_P2;PMS_P1;PMS_P2;Temp;Humidity;BMP_temperature;BMP_pressure;BME280_temperature;BME280_humidity;BME280_pressure;Samples;Min_cycle;Max_cycle;Signal;HPM_P1;HPM_P2
2022/10/02 00:01:56;;;;;;;10.05;2.58;;;;;;;12.69;84.79;98585.69;7384359;19;20014;-75
2022/10/02 00:04:33;;;;;;;6.35;2.55;;;;;;;12.69;84.74;98585.69;7379302;19;20010;-75
2022/10/02 00:07:05;;;;;;;13.23;3.20;;;;;;;12.70;84.61;98587.34;7385230;19;20014;-75
2022/10/02 00:09:37;;;;;;;12.70;3.10;;;;;;;12.75;84.78;98576.25;7384390;19;20015;-75
2022/10/02 00:12:08;;;;;;;10.95;2.55;;;;;;;12.79;84.77;98577.56;7381399;19;20124;-75
2022/10/02 00:14:37;;;;;;;7.65;2.50;;;;;;;12.83;84.67;98589.53;7381702;19;20014;-75
2022/10/02 00:17:05;;;;;;;9.15;2.10;;;;;;;12.88;84.61;98584.56;7384039;19;20018;-75
2022/10/02 00:19:31;;;;;;;9.13;2.38;;;;;;;12.83;84.68;98588.69;7385807;19;20019;-75
2022/10/02 00:22:43;;;;;;;6.90;2.38;;;;;;;12.83;84.72;98601.97;7383791;19;20097;-75
2022/10/02 00:25:24;;;;;;;9.65;2.58;;;;;;;12.80;84.92;98592.50;7381852;19;20030;-75
2022/10/02 00:28:16;;;;;;;9.80;2.50;;;;;;;12.84;85.01;98598.31;7384756;19;20011;-75
2022/10/02 00:31:06;;;;;;;11.45;2.40;;;;;;;12.81;85.14;98599.47;7381693;19;20089;-76
2022/10/02 00:33:47;;;;;;;8.52;2.28;;;;;;;12.89;84.78;98603.97;7385141;19;20023;-76
2022/10/02 00:36:30;;;;;;;7.65;2.65;;;;;;;12.84;84.77;98609.75;7385989;19;20018;-75
2022/10/02 00:39:19;;;;;;;8.52;2.22;;;;;;;12.80;85.19;98599.66;7382500;19;20014;-75
2022/10/02 00:42:04;;;;;;;11.02;2.38;;;;;;;12.82;85.09;98601.16;7383838;19;20019;-74
2022/10/02 00:45:14;;;;;;;5.32;2.40;;;;;;;12.84;85.21;98598.31;7386939;19;20010;-75
2022/10/02 00:48:06;;;;;;;16.60;2.47;;;;;;;12.86;85.09;98597.16;7379833;19;20397;-74
2022/10/02 00:50:33;;;;;;;11.55;1.95;;;;;;;12.87;85.12;98590.84;7385525;19;20019;-75
2022/10/02 00:53:25;;;;;;;10.77;2.13;;;;;;;12.89;84.90;98593.34;7379538;19;20054;-75
2022/10/02 00:56:27;;;;;;;9.38;2.47;;;;;;;12.84;85.17;98601.78;7382086;19;20038;-74
2022/10/02 00:59:26;;;;;;;10.77;2.30;;;;;;;12.90;85.00;98593.19;7381833;19;20046;-74
2022/10/02 01:02:15;;;;;;;11.38;2.13;;;;;;;12.94;84.80;98591.03;7379902;19;20014;-74
2022/10/02 01:04:42;;;;;;;4.18;1.67;;;;;;;12.94;84.85;98596.31;7382416;19;20388;-75
2022/10/02 01:07:09;;;;;;;3.70;2.00;;;;;;;12.90;84.79;98600.28;7381927;19;20019;-74
2022/10/02 01:09:38;;;;;;;9.75;2.50;;;;;;;12.80;84.95;98612.94;7380985;19;20014;-75
2022/10/02 01:12:06;;;;;;;6.18;2.30;;;;;;;12.77;85.15;98613.22;7378038;19;20082;-75
2022/10/02 01:14:37;;;;;;;7.63;2.67;;;;;;;12.85;84.89;98607.94;7382270;19;20056;-74
2022/10/02 01:17:05;;;;;;;9.77;2.35;;;;;;;12.87;84.58;98608.59;7388731;19;20038;-75
2022/10/02 01:19:40;;;;;;;8.82;2.20;;;;;;;12.88;84.62;98610.28;7389223;19;20018;-74
2022/10/02 01:22:18;;;;;;;9.20;2.08;;;;;;;12.85;84.63;98605.28;7386817;19;20015;-74
2022/10/02 01:24:49;;;;;;;13.60;2.28;;;;;;;12.86;84.82;98610.44;7391218;19;20041;-75
2022/10/02 01:27:16;;;;;;;7.97;2.10;;;;;;;12.85;84.80;98599.97;7388620;19;20038;-74
2022/10/02 01:29:43;;;;;;;7.22;1.90;;;;;;;12.79;85.01;98595.31;7388338;19;20047;-75
2022/10/02 01:32:10;;;;;;;12.10;2.40;;;;;;;12.82;84.77;98601.16;7389170;19;20371;-74
2022/10/02 01:34:38;;;;;;;5.45;1.95;;;;;;;12.84;84.96;98607.09;7391825;19;20485;-74
2022/10/02 01:37:06;;;;;;;6.53;1.98;;;;;;;12.87;84.79;98598.81;7384688;19;20015;-74
2022/10/02 01:39:33;;;;;;;8.60;1.88;;;;;;;12.84;84.88;98619.56;7389158;19;20022;-75
2022/10/02 01:41:59;;;;;;;6.82;1.80;;;;;;;12.84;84.82;98612.41;7388560;19;20372;-75
2022/10/02 01:44:27;;;;;;;4.63;2.05;;;;;;;12.82;84.87;98610.91;7381450;19;20492;-75
2022/10/02 01:47:03;;;;;;;7.13;2.08;;;;;;;12.85;84.73;98611.44;7387658;19;20525;-75
2022/10/02 01:49:39;;;;;;;9.45;2.63;;;;;;;12.83;84.93;98618.72;7389040;19;20015;-75
2022/10/02 01:52:22;;;;;;;8.68;2.88;;;;;;;12.82;85.12;98613.56;7389936;19;20033;-75
2022/10/02 01:55:00;;;;;;;;;;;;;;;12.87;85.13;98613.91;7385395;19;20351;-75
2022/10/02 01:57:55;;;;;;;3.75;1.48;;;;;;;12.89;84.94;98623.38;7385014;19;20366;-75
2022/10/02 02:00:24;;;;;;;8.40;2.15;;;;;;;12.84;84.96;98623.03;7386759;19;20034;-75
2022/10/02 02:03:09;;;;;;;7.82;2.25;;;;;;;12.82;85.25;98626.84;7383873;19;20018;-75
2022/10/02 02:05:42;;;;;;;9.73;1.92;;;;;;;12.86;85.10;98621.06;7389532;19;20022;-75
2022/10/02 02:08:27;;;;;;;7.22;2.08;;;;;;;12.89;85.04;98617.25;7389171;19;20011;-75
2022/10/02 02:11:10;;;;;;;7.78;2.05;;;;;;;12.91;85.15;98625.88;7387281;19;20024;-75
2022/10/02 02:13:59;;;;;;;15.68;2.65;;;;;;;12.88;84.93;98623.56;7386706;19;20043;-75
2022/10/02 02:16:34;;;;;;;5.22;2.00;;;;;;;12.88;85.00;98631.53;7389323;19;20531;-75
2022/10/02 02:19:12;;;;;;;12.30;2.80;;;;;;;12.84;85.21;98630.16;7385664;19;20409;-75
2022/10/02 02:21:46;;;;;;;9.23;2.10;;;;;;;12.88;85.16;98624.38;7388214;19;20030;-75
2022/10/02 02:24:18;;;;;;;10.88;2.00;;;;;;;12.92;85.02;98627.53;7385994;19;20034;-75
2022/10/02 02:26:45;;;;;;;6.97;1.95;;;;;;;12.96;84.97;98623.56;7385019;19;20022;-75
2022/10/02 02:29:13;;;;;;;4.05;1.70;;;;;;;12.99;85.22;98622.41;7383336;19;20007;-75
2022/10/02 02:31:46;;;;;;;8.68;1.83;;;;;;;12.99;85.08;98619.75;7387599;19;20042;-74
2022/10/02 02:34:18;;;;;;;9.57;2.22;;;;;;;13.00;85.14;98627.53;7385929;19;20018;-75
2022/10/02 02:36:47;;;;;;;10.88;2.10;;;;;;;12.93;85.30;98631.84;7386477;19;20026;-75
2022/10/02 02:39:16;;;;;;;5.90;2.03;;;;;;;12.99;85.19;98633.03;7384875;19;20014;-75
2022/10/02 02:41:47;;;;;;;9.73;1.88;;;;;;;13.00;85.27;98627.53;7387725;19;20046;-75
2022/10/02 02:44:30;;;;;;;6.20;2.47;;;;;;;13.01;85.21;98615.94;7383681;19;20335;-75
2022/10/02 02:47:05;;;;;;;10.15;2.25;;;;;;;13.00;85.32;98619.56;7382437;19;20034;-75
2022/10/02 02:49:46;;;;;;;6.63;1.60;;;;;;;13.04;85.34;98626.22;7388122;19;20018;-75
2022/10/02 02:52:20;;;;;;;5.78;1.67;;;;;;;13.05;85.13;98616.41;7383918;19;20093;-76
2022/10/02 02:54:53;;;;;;;4.80;1.52;;;;;;;12.99;85.15;98617.91;7386561;19;20022;-75
2022/10/02 02:57:28;;;;;;;5.38;1.65;;;;;;;12.99;85.20;98623.22;7385380;19;20018;-75
2022/10/02 02:59:57;;;;;;;5.68;1.65;;;;;;;12.99;85.22;98623.22;7384424;19;20014;-75
2022/10/02 03:02:24;;;;;;;9.82;2.03;;;;;;;13.03;85.14;98627.19;7380444;19;20517;-75
2022/10/02 03:04:51;;;;;;;8.82;3.55;;;;;;;12.92;85.49;98627.53;7387710;19;20396;-75
2022/10/02 03:07:18;;;;;;;6.22;2.05;;;;;;;12.97;85.52;98630.53;7385392;19;20006;-75
2022/10/02 03:10:14;;;;;;;8.40;1.60;;;;;;;13.01;85.32;98631.88;7385466;19;20098;-75
2022/10/02 03:13:02;;;;;;;7.00;1.92;;;;;;;13.04;85.23;98636.84;7384820;19;20058;-75
2022/10/02 03:15:54;;;;;;;11.00;1.65;;;;;;;13.00;85.32;98643.47;7386554;19;20013;-76
2022/10/02 03:18:43;;;;;;;5.22;2.28;;;;;;;13.04;85.05;98647.47;7384367;19;20015;-76
2022/10/02 03:21:23;;;;;;;5.75;1.83;;;;;;;13.04;84.92;98636.84;7387410;19;20014;-76
2022/10/02 03:23:57;;;;;;;5.93;1.65;;;;;;;13.04;84.93;98631.53;7381576;19;20034;-76
2022/10/02 03:26:44;;;;;;;5.03;1.95;;;;;;;13.01;85.08;98636.34;7384672;19;20014;-75
2022/10/02 03:29:17;;;;;;;12.43;1.83;;;;;;;13.00;85.05;98632.84;7381175;19;20033;-76
2022/10/02 03:31:45;;;;;;;6.55;1.92;;;;;;;13.01;85.06;98625.72;7385974;19;20030;-76
2022/10/02 03:34:12;;;;;;;8.02;1.45;;;;;;;13.03;84.96;98629.03;7384115;19;20092;-76
2022/10/02 03:36:39;;;;;;;5.78;1.63;;;;;;;13.06;85.03;98629.53;7383640;19;20048;-76
2022/10/02 03:39:06;;;;;;;9.52;1.80;;;;;;;13.06;85.00;98618.06;7380580;19;20701;-76
2022/10/02 03:41:53;;;;;;;6.30;1.75;;;;;;;13.07;84.99;98617.09;7384622;19;20021;-76
2022/10/02 03:44:20;;;;;;;6.28;1.95;;;;;;;13.04;85.03;98620.09;7383979;19;20335;-76
2022/10/02 03:46:46;;;;;;;6.03;1.75;;;;;;;13.06;84.91;98618.06;7384749;19;20010;-76
2022/10/02 03:49:13;;;;;;;9.27;2.13;;;;;;;13.05;84.89;98622.56;7386966;19;20583;-76
2022/10/02 03:51:40;;;;;;;8.90;2.00;;;;;;;13.04;85.12;98612.94;7384123;19;20026;-76
2022/10/02 03:54:18;;;;;;;9.00;2.03;;;;;;;13.00;85.11;98610.78;7384297;19;20039;-76
2022/10/02 03:56:55;;;;;;;4.38;2.10;;;;;;;13.03;85.06;98624.53;7385326;19;20022;-76
2022/10/02 03:59:33;;;;;;;5.55;1.77;;;;;;;12.97;85.10;98617.25;7381523;19;20032;-75
2022/10/02 04:02:05;;;;;;;7.15;2.10;;;;;;;12.96;85.15;98616.41;7381654;19;20019;-75
2022/10/02 04:04:41;;;;;;;6.88;2.47;;;;;;;12.99;85.21;98628.53;7383610;19;20022;-75
2022/10/02 04:07:15;;;;;;;3.72;1.65;;;;;;;13.02;84.94;98628.19;7384829;19;20038;-76
2022/10/02 04:09:59;;;;;;;9.93;2.20;;;;;;;12.96;85.23;98627.03;7382030;19;20018;-76
2022/10/02 04:12:27;;;;;;;11.32;2.25;;;;;;;12.95;85.49;98633.34;7384297;19;20035;-75
2022/10/02 04:15:01;;;;;;;10.25;2.25;;;;;;;12.98;85.32;98628.69;7380326;19;20034;-75
2022/10/02 04:17:43;;;;;;;13.07;1.98;;;;;;;13.00;85.22;98632.00;7379081;19;20431;-75
2022/10/02 04:20:17;;;;;;;8.13;2.05;;;;;;;13.02;85.36;98638.81;7380866;19;20041;-75
2022/10/02 04:22:50;;;;;;;11.07;2.10;;;;;;;13.00;85.30;98634.66;7379721;19;20011;-75
2022/10/02 04:25:18;;;;;;;11.93;2.30;;;;;;;12.99;85.38;98644.47;7381703;19;21973;-75
2022/10/02 04:28:09;;;;;;;10.57;2.33;;;;;;;13.01;85.42;98650.44;7383770;19;20019;-75
2022/10/02 04:30:36;;;;;;;5.78;1.70;;;;;;;13.02;85.33;98645.97;7381007;19;20115;-75
2022/10/02 04:33:14;;;;;;;13.55;2.25;;;;;;;13.00;85.40;98651.44;7382387;19;20019;-75
2022/10/02 04:36:03;;;;;;;12.90;2.00;;;;;;;13.03;85.27;98652.94;7388100;19;20091;-75
2022/10/02 04:38:51;;;;;;;9.82;1.70;;;;;;;13.09;85.25;98666.41;7381554;19;20514;-75
2022/10/02 04:41:42;;;;;;;6.93;1.95;;;;;;;13.07;85.12;98652.44;7380200;19;20015;-74
2022/10/02 04:44:18;;;;;;;10.63;2.13;;;;;;;13.07;85.23;98652.44;7385103;19;20043;-74
2022/10/02 04:47:22;;;;;;;4.18;1.88;;;;;;;13.12;85.18;98654.63;7380639;19;20018;-74
2022/10/02 04:50:08;;;;;;;6.70;1.90;;;;;;;13.09;85.28;98652.28;7380873;19;20018;-74
2022/10/02 04:52:50;;;;;;;9.00;2.10;;;;;;;13.10;85.25;98643.31;7389984;19;20022;-74
2022/10/02 04:55:36;;;;;;;7.07;1.90;;;;;;;13.01;85.46;98657.59;7392862;19;20014;-74
2022/10/02 04:58:26;;;;;;;4.50;1.95;;;;;;;13.02;85.48;98664.56;7387353;19;20010;-74
2022/10/02 05:01:05;;;;;;;10.25;2.70;;;;;;;12.94;86.01;98650.25;7392198;19;20014;-74
2022/10/02 05:03:58;;;;;;;8.15;1.98;;;;;;;12.80;86.13;98660.72;7389991;19;20014;-75
2022/10/02 05:06:47;;;;;;;11.23;2.05;;;;;;;12.74;85.85;98652.41;7392514;19;20044;-75
2022/10/02 05:09:33;;;;;;;13.00;2.03;;;;;;;12.75;85.65;98653.22;7389475;19;20056;-75
2022/10/02 05:12:22;;;;;;;16.10;2.40;;;;;;;12.88;85.53;98647.44;7389408;19;20014;-75
2022/10/02 05:15:02;;;;;;;6.30;1.85;;;;;;;12.87;85.57;98641.28;7384382;19;20062;-76
2022/10/02 05:17:46;;;;;;;8.95;1.85;;;;;;;12.90;85.20;98640.97;7390462;19;20026;-76
2022/10/02 05:20:44;;;;;;;10.07;2.20;;;;;;;12.94;85.18;98641.47;7386524;19;20044;-76
2022/10/02 05:23:44;;;;;;;6.28;1.80;;;;;;;12.98;85.12;98642.81;7386365;19;20065;-75
2022/10/02 05:26:30;;;;;;;10.50;2.00;;;;;;;13.01;85.09;98641.66;7390127;19;20022;-75
2022/10/02 05:29:15;;;;;;;9.10;2.22;;;;;;;13.02;84.98;98644.13;7388206;19;20026;-75
2022/10/02 05:31:41;;;;;;;9.57;2.20;;;;;;;13.06;84.86;98637.50;7386701;19;20017;-75
2022/10/02 05:34:24;;;;;;;13.30;2.50;;;;;;;13.05;84.95;98646.47;7389769;19;20010;-75
2022/10/02 05:37:03;;;;;;;5.15;1.35;;;;;;;13.07;84.98;98643.66;7387468;19;20023;-74
2022/10/02 05:39:32;;;;;;;14.10;1.75;;;;;;;13.10;84.92;98640.66;7386780;19;20015;-74
2022/10/02 05:42:02;;;;;;;20.27;2.35;;;;;;;13.06;84.95;98639.31;7388360;19;20654;-74
2022/10/02 05:44:36;;;;;;;9.60;1.90;;;;;;;13.09;84.96;98642.50;7387361;19;20493;-75
2022/10/02 05:47:14;;;;;;;11.18;2.28;;;;;;;13.09;84.71;98642.50;7386200;19;20018;-75
2022/10/02 05:49:58;;;;;;;8.65;2.63;;;;;;;13.09;84.79;98634.53;7387390;19;20022;-75
2022/10/02 05:52:49;;;;;;;5.72;2.75;;;;;;;13.09;84.87;98641.66;7385553;19;20042;-75
2022/10/02 05:55:38;;;;;;;10.55;4.07;;;;;;;13.10;84.98;98641.47;7385338;19;20682;-75
2022/10/02 05:58:12;;;;;;;9.20;3.95;;;;;;;13.07;85.00;98647.13;7387977;19;20014;-74
2022/10/02 06:00:46;;;;;;;13.63;4.05;;;;;;;13.08;84.99;98643.47;7387345;19;20018;-75
2022/10/02 06:03:37;;;;;;;13.30;3.75;;;;;;;13.07;85.09;98649.78;7386564;19;20477;-75
2022/10/02 06:06:35;;;;;;;20.08;3.30;;;;;;;13.03;85.06;98656.41;7387322;19;20042;-75
2022/10/02 06:09:16;;;;;;;4.82;3.05;;;;;;;13.04;85.23;98657.25;7386332;19;20015;-74
2022/10/02 06:11:54;;;;;;;7.72;3.22;;;;;;;13.07;85.31;98649.78;7384139;19;20011;-75
2022/10/02 06:14:40;;;;;;;10.88;2.60;;;;;;;13.06;85.43;98673.84;7387407;19;20481;-75
2022/10/02 06:17:29;;;;;;;9.15;2.63;;;;;;;12.93;85.87;98671.69;7388513;19;20042;-75
2022/10/02 06:20:22;;;;;;;10.98;2.72;;;;;;;13.01;85.85;98669.03;7388817;19;20015;-76
2022/10/02 06:22:55;;;;;;;10.35;2.63;;;;;;;13.13;85.60;98664.22;7387199;19;20122;-75
2022/10/02 06:25:31;;;;;;;17.67;2.85;;;;;;;13.18;85.51;98665.38;7390971;19;20518;-76
2022/10/02 06:28:07;;;;;;;11.15;2.22;;;;;;;13.18;85.67;98662.72;7384684;19;20018;-75
2022/10/02 06:30:37;;;;;;;15.45;2.83;;;;;;;13.28;85.37;98651.16;7387348;19;20023;-75
2022/10/02 06:33:16;;;;;;;10.95;2.70;;;;;;;13.29;85.43;98655.47;7384856;19;20034;-76
2022/10/02 06:35:53;;;;;;;13.50;3.10;;;;;;;13.31;85.05;98645.50;7390966;19;20018;-76
2022/10/02 06:38:22;;;;;;;10.45;4.53;;;;;;;13.28;85.23;98643.19;7385038;19;20014;-76
2022/10/02 06:41:07;;;;;;;13.27;3.20;;;;;;;13.21;85.61;98648.28;7390990;19;20018;-76
2022/10/02 06:44:18;;;;;;;8.88;2.47;;;;;;;13.29;85.31;98632.38;7385809;19;20022;-75
2022/10/02 06:46:49;;;;;;;10.43;2.40;;;;;;;13.33;85.20;98625.75;7383685;19;20014;-75
2022/10/02 06:49:26;;;;;;;13.55;2.35;;;;;;;13.34;85.15;98629.22;7385574;19;20038;-75
2022/10/02 06:52:05;;;;;;;7.00;2.53;;;;;;;13.37;84.99;98636.88;7387164;19;20022;-76
2022/10/02 06:54:57;;;;;;;9.30;2.78;;;;;;;13.41;84.79;98642.69;7385217;19;20396;-76
2022/10/02 06:58:09;;;;;;;6.80;2.53;;;;;;;13.42;84.89;98645.16;7384144;19;20046;-76
2022/10/02 07:00:49;;;;;;;7.40;2.55;;;;;;;13.49;84.81;98634.72;7382194;19;20050;-76
2022/10/02 07:03:34;;;;;;;8.55;2.28;;;;;;;13.47;84.56;98626.88;7380528;19;20085;-76
2022/10/02 07:06:23;;;;;;;10.02;2.78;;;;;;;13.45;84.72;98609.44;7384616;19;20014;-76
2022/10/02 07:08:53;;;;;;;13.02;3.10;;;;;;;13.45;84.80;98618.25;7383899;19;20042;-77
2022/10/02 07:11:45;;;;;;;7.72;2.60;;;;;;;13.45;84.74;98623.56;7383594;19;20344;-77
2022/10/02 07:14:15;;;;;;;12.48;3.63;;;;;;;13.47;84.78;98616.25;7381340;19;20574;-77
2022/10/02 07:17:27;;;;;;;8.18;3.10;;;;;;;13.41;84.87;98603.66;7384416;19;20018;-77
2022/10/02 07:19:59;;;;;;;7.95;3.25;;;;;;;13.47;84.94;98605.63;7384963;19;20026;-77
2022/10/02 07:22:57;;;;;;;4.85;2.92;;;;;;;13.50;85.05;98610.59;7386157;19;20058;-77
2022/10/02 07:25:43;;;;;;;8.57;3.00;;;;;;;13.68;85.22;98588.31;7388164;19;20010;-77
2022/10/02 07:28:36;;;;;;;3.20;2.30;;;;;;;13.76;85.12;98589.13;7384026;19;20015;-76
2022/10/02 07:31:17;;;;;;;11.30;3.90;;;;;;;13.74;84.69;98595.59;7383866;19;20029;-75
2022/10/02 07:34:03;;;;;;;13.05;3.40;;;;;;;13.73;84.26;98584.13;7386009;19;20359;-75
2022/10/02 07:36:42;;;;;;;5.45;3.15;;;;;;;13.65;84.26;98583.34;7386916;19;20462;-76
2022/10/02 07:39:35;;;;;;;6.65;2.55;;;;;;;13.61;84.40;98583.69;7385469;19;20026;-75
2022/10/02 07:42:09;;;;;;;;;;;;;;;13.65;84.37;98578.84;7380619;19;20037;-77
2022/10/02 07:44:55;;;;;;;21.67;3.28;;;;;;;13.63;84.53;98582.69;7383097;19;19911;-76
2022/10/02 07:47:50;;;;;;;5.80;3.15;;;;;;;13.57;84.54;98585.00;7378515;19;20485;-75
2022/10/02 07:50:30;;;;;;;9.52;3.22;;;;;;;13.64;84.35;98581.66;7382685;19;20054;-77
2022/10/02 07:53:09;;;;;;;7.70;3.95;;;;;;;13.66;84.46;98577.84;7381645;19;20013;-76
2022/10/02 07:55:40;;;;;;;9.20;3.47;;;;;;;13.68;84.49;98589.13;7386596;19;20018;-76
2022/10/02 07:58:13;;;;;;;11.23;3.38;;;;;;;13.68;84.55;98585.66;7383426;19;20054;-75
2022/10/02 08:00:47;;;;;;;16.60;3.90;;;;;;;13.69;84.75;98589.97;7383761;19;20038;-76
2022/10/02 08:03:16;;;;;;;11.48;4.78;;;;;;;13.53;85.03;98594.34;7382719;19;20018;-76
2022/10/02 08:05:48;;;;;;;7.78;4.03;;;;;;;13.65;84.78;98588.66;7384031;19;20014;-77
2022/10/02 08:08:19;;;;;;;10.98;5.53;;;;;;;13.58;85.00;98580.53;7382302;19;20035;-76
2022/10/02 08:10:49;;;;;;;9.93;4.80;;;;;;;13.55;84.86;98584.34;7383797;19;20645;-75
2022/10/02 08:13:20;;;;;;;9.77;4.78;;;;;;;13.60;84.78;98584.66;7387052;19;20517;-75
2022/10/02 08:15:51;;;;;;;9.15;3.88;;;;;;;13.74;84.83;98566.34;7386945;19;20022;-75
2022/10/02 08:18:26;;;;;;;7.38;3.60;;;;;;;13.81;84.24;98565.50;7380372;19;20042;-75
2022/10/02 08:21:02;;;;;;;13.38;4.60;;;;;;;13.56;84.67;98601.13;7381616;19;20018;-75
2022/10/02 08:24:03;;;;;;;5.15;4.35;;;;;;;13.67;84.96;98576.03;7379476;19;20011;-76
2022/10/02 08:26:37;;;;;;;9.18;4.75;;;;;;;14.17;85.37;98543.75;7383976;19;20010;-75
2022/10/02 08:29:09;;;;;;;7.07;5.03;;;;;;;14.31;84.81;98555.47;7391525;19;20501;-75
2022/10/02 08:31:35;;;;;;;13.60;5.03;;;;;;;13.93;84.72;98573.09;7390445;19;20045;-75
2022/10/02 08:34:15;;;;;;;8.02;4.95;;;;;;;14.19;84.70;98556.84;7388436;19;20019;-76
2022/10/02 08:37:03;;;;;;;13.07;4.68;;;;;;;14.31;84.71;98560.78;7390599;19;20018;-78
2022/10/02 08:39:43;;;;;;;13.85;4.35;;;;;;;14.31;84.03;98542.16;7389336;19;20006;-77
2022/10/02 08:42:47;;;;;;;14.93;5.13;;;;;;;13.81;84.56;98586.78;7389325;19;20127;-76
2022/10/02 08:45:42;;;;;;;9.55;4.82;;;;;;;14.08;84.96;98549.28;7396420;19;20018;-75
2022/10/02 08:48:38;;;;;;;8.77;4.78;;;;;;;14.25;84.54;98561.50;7393524;19;20082;-75
2022/10/02 08:51:44;;;;;;;18.52;4.30;;;;;;;14.41;84.12;98558.75;7392069;19;20046;-76
2022/10/02 08:54:32;;;;;;;15.48;3.95;;;;;;;14.41;83.82;98550.75;7393738;19;20015;-75
2022/10/02 08:57:22;;;;;;;9.13;2.97;;;;;;;14.57;83.78;98549.84;7393876;19;20007;-76
2022/10/02 09:00:05;;;;;;;17.38;3.72;;;;;;;14.57;83.96;98543.69;7393791;19;20006;-76
2022/10/02 09:02:54;;;;;;;13.98;3.20;;;;;;;14.82;83.56;98521.19;7391076;19;20034;-76
2022/10/02 09:05:39;;;;;;;11.15;2.80;;;;;;;15.15;83.32;98524.41;7395064;19;20018;-76
2022/10/02 09:08:32;;;;;;;6.57;2.92;;;;;;;15.14;82.42;98527.25;7392023;19;20011;-76
2022/10/02 09:11:04;;;;;;;12.02;3.28;;;;;;;15.23;82.27;98520.00;7391879;19;20021;-76
2022/10/02 09:13:42;;;;;;;12.13;3.15;;;;;;;15.20;82.19;98521.19;7392311;19;20007;-76
2022/10/02 09:16:35;;;;;;;8.05;3.60;;;;;;;15.29;81.58;98519.25;7391156;19;20018;-76
2022/10/02 09:19:34;;;;;;;13.95;3.85;;;;;;;15.47;81.15;98503.75;7393370;19;20028;-76
2022/10/02 09:22:36;;;;;;;9.07;3.55;;;;;;;15.32;80.77;98519.75;7392026;19;20116;-76
2022/10/02 09:25:18;;;;;;;13.10;3.88;;;;;;;15.30;80.35;98535.09;7391401;19;20493;-75
2022/10/02 09:28:16;;;;;;;7.57;3.63;;;;;;;14.98;81.33;98554.88;7393406;19;20038;-76
2022/10/02 09:31:02;;;;;;;13.48;4.25;;;;;;;14.32;82.90;98551.78;7393487;19;20011;-76
2022/10/02 09:33:44;;;;;;;8.90;2.85;;;;;;;14.41;83.27;98541.94;7392153;19;20015;-75
2022/10/02 09:36:29;;;;;;;6.30;3.00;;;;;;;14.14;83.66;98538.78;7394513;19;20011;-76
2022/10/02 09:39:17;;;;;;;7.30;2.78;;;;;;;14.15;84.09;98536.94;7389723;19;20385;-76
2022/10/02 09:42:19;;;;;;;9.30;2.47;;;;;;;14.18;84.18;98533.91;7389586;19;20011;-76
2022/10/02 09:44:58;;;;;;;8.25;2.85;;;;;;;14.35;84.26;98524.00;7390920;19;20054;-77
2022/10/02 09:48:07;;;;;;;6.60;2.45;;;;;;;14.56;83.26;98510.94;7391579;19;20460;-77
2022/10/02 09:50:55;;;;;;;8.02;2.50;;;;;;;14.60;83.05;98522.03;7392197;19;20024;-76
2022/10/02 09:53:27;;;;;;;10.43;2.65;;;;;;;13.80;84.83;98536.44;7390247;19;20053;-76
2022/10/02 09:56:16;;;;;;;7.65;2.17;;;;;;;14.09;84.51;98535.81;7390276;19;20465;-76
2022/10/02 09:59:16;;;;;;;6.35;2.97;;;;;;;13.77;84.88;98532.28;7388033;19;20018;-75
2022/10/02 10:02:01;;;;;;;6.47;2.35;;;;;;;13.60;84.65;98544.78;7391796;19;20022;-76
2022/10/02 10:04:37;;;;;;;6.13;2.58;;;;;;;13.48;84.83;98532.88;7390186;19;20018;-75
2022/10/02 10:07:51;;;;;;;5.60;2.85;;;;;;;13.79;84.79;98543.56;7391231;19;20014;-75
2022/10/02 10:10:44;;;;;;;7.30;2.85;;;;;;;13.82;84.71;98551.22;7388317;19;20037;-74
2022/10/02 10:13:38;;;;;;;5.22;2.30;;;;;;;14.04;84.38;98536.31;7388693;19;20054;-75
2022/10/02 10:16:29;;;;;;;6.05;2.42;;;;;;;14.01;84.99;98538.50;7389885;19;20492;-75
2022/10/02 10:19:21;;;;;;;2.97;2.22;;;;;;;14.06;84.37;98546.81;7392657;19;20031;-75
2022/10/02 10:21:53;;;;;;;5.22;2.17;;;;;;;13.89;84.69;98556.66;7353207;19;20014;-74
2022/10/02 10:24:38;;;;;;;5.18;1.88;;;;;;;14.26;84.86;98552.50;7372937;19;20010;-75
2022/10/02 10:27:29;;;;;;;7.53;2.20;;;;;;;14.88;84.27;98547.13;7391266;19;20018;-75
2022/10/02 10:30:19;;;;;;;4.25;1.42;;;;;;;15.39;83.00;98537.66;7389920;19;20355;-75
2022/10/02 10:33:23;;;;;;;4.20;1.52;;;;;;;14.95;81.38;98538.41;7382330;19;20022;-75
2022/10/02 10:39:36;;;;;;;2.95;1.58;;;;;;;15.70;80.63;98527.69;7388810;19;20482;-75
2022/10/02 10:42:33;;;;;;;1.67;1.20;;;;;;;15.41;79.13;98519.66;7388914;19;20509;-75
2022/10/02 10:45:43;;;;;;;2.85;1.20;;;;;;;14.48;81.48;98556.19;7387572;19;20017;-73
2022/10/02 10:48:31;;;;;;;3.05;1.27;;;;;;;14.31;82.06;98571.44;7386631;19;20034;-75
2022/10/02 10:51:39;;;;;;;1.42;1.05;;;;;;;14.28;82.98;98564.63;7387449;19;20010;-77
2022/10/02 10:54:25;;;;;;;2.88;1.05;;;;;;;14.61;82.93;98568.94;7386410;19;20043;-75
2022/10/02 10:56:56;;;;;;;3.47;1.20;;;;;;;14.27;83.31;98564.81;7389234;19;20038;-75
2022/10/02 10:59:55;;;;;;;1.98;1.30;;;;;;;14.64;82.58;98557.94;7386741;19;20741;-77
2022/10/02 11:02:46;;;;;;;2.70;0.93;;;;;;;14.73;83.03;98556.91;7382713;19;20023;-77
2022/10/02 11:05:50;;;;;;;1.70;1.00;;;;;;;14.93;82.22;98551.91;7384279;19;20015;-74
2022/10/02 11:08:47;;;;;;;2.95;1.10;;;;;;;14.45;81.97;98560.03;7390583;19;20011;-76
2022/10/02 11:11:23;;;;;;;1.80;1.30;;;;;;;14.31;82.15;98560.78;7386265;19;22621;-74
2022/10/02 11:14:04;;;;;;;9.00;4.00;;;;;;;14.32;82.90;98567.75;7382806;19;20010;-76
2022/10/02 11:16:55;;;;;;;3.78;1.75;;;;;;;14.38;83.05;98566.25;7386070;19;20038;-76
2022/10/02 11:19:33;;;;;;;2.67;1.00;;;;;;;14.41;83.00;98574.72;7388994;19;20018;-77
2022/10/02 11:22:24;;;;;;;1.23;0.90;;;;;;;14.62;82.39;98586.59;7386312;19;20019;-76
2022/10/02 11:24:54;;;;;;;1.55;1.30;;;;;;;14.32;83.33;98588.22;7387233;19;20343;-76
2022/10/02 11:27:33;;;;;;;1.92;1.42;;;;;;;14.35;83.27;98594.03;7387014;19;20046;-75
2022/10/02 11:30:31;;;;;;;2.13;1.35;;;;;;;14.63;82.69;98585.59;7386472;19;20014;-75
2022/10/02 11:33:06;;;;;;;1.67;0.98;;;;;;;14.70;83.04;98570.56;7385560;19;20010;-75
2022/10/02 11:35:55;;;;;;;1.42;0.80;;;;;;;15.00;82.41;98562.69;7388623;19;20047;-76
2022/10/02 11:38:31;;;;;;;1.75;0.90;;;;;;;15.16;81.83;98565.19;7384298;19;20507;-75
2022/10/02 11:41:09;;;;;;;0.90;0.90;;;;;;;14.94;81.18;98561.56;7384399;19;20038;-74
2022/10/02 11:43:39;;;;;;;2.75;1.00;;;;;;;14.94;81.17;98561.56;7386778;19;20022;-73
2022/10/02 11:46:35;;;;;;;1.65;1.13;;;;;;;15.22;80.53;98548.50;7385470;19;20033;-73
2022/10/02 11:49:27;;;;;;;1.42;1.08;;;;;;;15.04;80.77;98569.31;7384730;19;20018;-74
2022/10/02 11:52:07;;;;;;;2.28;0.90;;;;;;;14.90;80.70;98568.25;7383136;19;20021;-74
2022/10/02 11:54:44;;;;;;;1.80;1.20;;;;;;;14.96;81.09;98548.91;7385413;19;20017;-74
2022/10/02 11:57:28;;;;;;;1.45;1.30;;;;;;;14.86;80.99;98567.78;7385399;19;20010;-74
2022/10/02 12:00:13;;;;;;;2.38;1.38;;;;;;;14.89;81.91;98562.09;7382938;19;20015;-74
2022/10/02 12:02:52;;;;;;;1.80;1.30;;;;;;;15.00;81.33;98574.16;7370321;19;20031;-74
2022/10/02 12:05:41;;;;;;;2.17;1.60;;;;;;;14.57;81.88;98570.31;7383144;19;20042;-75
2022/10/02 12:08:23;;;;;;;1.50;1.30;;;;;;;14.63;82.08;98553.63;7380438;19;20019;-75
2022/10/02 12:10:58;;;;;;;2.92;1.77;;;;;;;14.60;82.21;98559.31;7381151;19;20604;-75
2022/10/02 12:13:34;;;;;;;2.90;1.48;;;;;;;14.63;81.95;98561.63;7380542;19;20010;-73
2022/10/02 12:16:00;;;;;;;2.85;1.50;;;;;;;14.69;82.04;98552.91;7386739;19;20017;-75
2022/10/02 12:18:49;;;;;;;1.55;1.45;;;;;;;14.75;82.02;98552.22;7380533;19;20105;-73
2022/10/02 12:27:42;;;;;;;1.92;1.20;;;;;;;14.76;81.62;98547.72;7382052;19;20022;-75
2022/10/02 12:30:18;;;;;;;1.58;0.95;;;;;;;14.40;82.27;98554.44;7379420;19;21230;-74
2022/10/02 12:33:06;;;;;;;2.00;1.00;;;;;;;14.57;81.81;98544.53;7378687;19;20045;-72
2022/10/02 12:35:36;;;;;;;2.72;1.25;;;;;;;14.60;82.23;98548.66;7354458;19;20018;-74
2022/10/02 12:38:12;;;;;;;1.30;1.20;;;;;;;14.57;82.56;98546.38;7371837;19;20019;-74
2022/10/02 12:40:51;;;;;;;0.80;0.80;;;;;;;14.55;82.41;98562.50;7379317;19;20033;-75
2022/10/02 12:43:39;;;;;;;2.72;0.90;;;;;;;14.36;82.62;98569.09;7374069;19;20515;-73
2022/10/02 12:46:18;;;;;;;6.30;2.15;;;;;;;14.34;82.97;98586.22;7380112;19;20022;-75
2022/10/02 12:49:11;;;;;;;1.77;1.35;;;;;;;14.36;83.34;98569.09;7386616;19;20078;-77